createdAt,value
2022-09-18T00:01:08.110Z,101653.63
2022-09-18T00:03:34.529Z,101645.81
2022-09-18T00:06:07.420Z,101644.25
2022-09-18T00:08:33.848Z,101639.25
2022-09-18T00:11:04.470Z,101638.59
2022-09-18T00:13:31.097Z,101642.13
2022-09-18T00:15:57.732Z,101642.91
2022-09-18T00:18:24.231Z,101634.44
2022-09-18T00:20:50.659Z,101633.03
2022-09-18T00:23:17.095Z,101630.19
2022-09-18T00:25:43.500Z,101627.94
2022-09-18T00:28:09.917Z,101640.72
2022-09-18T00:30:36.380Z,101651.59
2022-09-18T00:33:02.869Z,101646.94
2022-09-18T00:35:29.331Z,101643.78
2022-09-18T00:37:55.791Z,101642.19
2022-09-18T00:40:22.263Z,101639.81
2022-09-18T00:42:48.734Z,101629.59
2022-09-18T00:45:15.183Z,101630.25
2022-09-18T00:47:46.283Z,101636.69
2022-09-18T00:50:17.964Z,101645.97
2022-09-18T00:52:57.949Z,101631.91
2022-09-18T00:55:31.006Z,101633.03
2022-09-18T00:58:00.509Z,101632.72
2022-09-18T01:00:27.959Z,101641.47
2022-09-18T01:02:54.391Z,101639.72
2022-09-18T01:05:40.766Z,101643.59
2022-09-18T01:08:18.476Z,101638.03
2022-09-18T01:11:00.103Z,101644.09
2022-09-18T01:14:05.384Z,101642.06
2022-09-18T01:16:40.786Z,101632.97
2022-09-18T01:19:33.452Z,101622.91
2022-09-18T01:22:37.294Z,101625.63
2022-09-18T01:25:03.657Z,101622.31
2022-09-18T01:27:51.753Z,101631.59
2022-09-18T01:30:18.391Z,101636.22
2022-09-18T01:32:57.093Z,101632.22
2022-09-18T01:35:52.849Z,101636.56
2022-09-18T01:38:25.427Z,101623.28
2022-09-18T01:41:10.149Z,101627.59
2022-09-18T01:43:39.175Z,101638.16
2022-09-18T01:46:14.405Z,101620.72
2022-09-18T01:49:00.864Z,101619.13
2022-09-18T01:51:35.223Z,101620.72
2022-09-18T01:54:11.056Z,101622.16
2022-09-18T01:56:42.222Z,101622.16
2022-09-18T01:59:15.528Z,101627.59
2022-09-18T02:01:44.375Z,101620.25
2022-09-18T02:04:17.362Z,101622.50
2022-09-18T02:06:51.947Z,101618.97
2022-09-18T02:09:18.458Z,101633.03
2022-09-18T02:11:50.738Z,101635.44
2022-09-18T02:14:25.793Z,101622.66
2022-09-18T02:16:57.680Z,101622.75
2022-09-18T02:19:42.673Z,101638.28
2022-09-18T02:22:12.436Z,101633.09
2022-09-18T02:24:42.727Z,101620.25
2022-09-18T02:27:11.933Z,101621.84
2022-09-18T02:29:40.352Z,101616.94
2022-09-18T02:32:06.808Z,101617.59
2022-09-18T02:34:33.805Z,101609.78
2022-09-18T02:37:15.305Z,101609.00
2022-09-18T02:40:07.819Z,101605.78
2022-09-18T02:43:09.430Z,101603.06
2022-09-18T02:46:00.542Z,101603.91
2022-09-18T02:49:17.297Z,101604.69
2022-09-18T02:51:51.129Z,101612.06
2022-09-18T02:54:29.634Z,101601.31
2022-09-18T02:57:01.948Z,101593.94
2022-09-18T02:59:43.916Z,101590.44
2022-09-18T03:02:10.786Z,101583.28
2022-09-18T03:04:37.513Z,101579.47
2022-09-18T03:07:04.407Z,101583.50
2022-09-18T03:09:32.311Z,101588.91
2022-09-18T03:11:58.729Z,101587.78
2022-09-18T03:14:25.142Z,101583.34
2022-09-18T03:16:51.538Z,101584.47
2022-09-18T03:19:17.981Z,101574.28
2022-09-18T03:21:44.629Z,101572.69
2022-09-18T03:24:11.124Z,101571.75
2022-09-18T03:26:38.193Z,101579.59
2022-09-18T03:29:09.013Z,101572.53
2022-09-18T03:31:36.010Z,101576.38
2022-09-18T03:34:02.714Z,101582.03
2022-09-18T03:36:29.166Z,101586.19
2022-09-18T03:38:55.684Z,101595.59
2022-09-18T03:41:22.825Z,101587.91
2022-09-18T03:43:49.864Z,101584.41
2022-09-18T03:46:22.359Z,101582.59
2022-09-18T03:48:52.659Z,101576.25
2022-09-18T03:51:19.965Z,101575.47
2022-09-18T03:53:47.764Z,101570.38
2022-09-18T03:56:15.323Z,101575.81
2022-09-18T03:58:41.946Z,101569.88
2022-09-18T04:01:08.925Z,101567.16
2022-09-18T04:03:35.631Z,101564.47
2022-09-18T04:06:02.710Z,101552.50
2022-09-18T04:08:29.170Z,101557.94
2022-09-18T04:10:55.614Z,101562.22
2022-09-18T04:13:22.104Z,101554.09
2022-09-18T04:15:50.420Z,101545.16
2022-09-18T04:18:18.109Z,101555.00
2022-09-18T04:20:45.178Z,101562.34
2022-09-18T04:23:14.298Z,101555.34
2022-09-18T04:25:44.223Z,101558.50
2022-09-18T04:28:11.267Z,101555.47
2022-09-18T04:30:38.137Z,101561.69
2022-09-18T04:33:05.277Z,101569.03
2022-09-18T04:35:31.762Z,101580.38
2022-09-18T04:37:58.181Z,101597.13
2022-09-18T04:40:24.871Z,101598.25
2022-09-18T04:42:51.422Z,101600.31
2022-09-18T04:45:17.891Z,101596.47
2022-09-18T04:47:46.944Z,101591.63
2022-09-18T04:50:13.502Z,101586.53
2022-09-18T04:52:40.049Z,101582.53
2022-09-18T04:55:06.876Z,101585.59
2022-09-18T04:57:33.308Z,101580.84
2022-09-18T04:59:59.726Z,101572.53
2022-09-18T05:02:26.366Z,101575.59
2022-09-18T05:04:52.857Z,101574.47
2022-09-18T05:07:19.375Z,101578.66
2022-09-18T05:09:45.850Z,101577.38
2022-09-18T05:12:12.314Z,101571.50
2022-09-18T05:14:39.066Z,101553.59
2022-09-18T05:17:05.917Z,101546.28
2022-09-18T05:19:32.393Z,101553.59
2022-09-18T05:21:58.830Z,101555.41
2022-09-18T05:24:25.254Z,101564.66
2022-09-18T05:26:51.643Z,101557.19
2022-09-18T05:29:18.133Z,101561.34
2022-09-18T05:31:44.653Z,101552.75
2022-09-18T05:34:11.165Z,101554.66
2022-09-18T05:36:37.578Z,101555.00
2022-09-18T05:39:04.233Z,101567.44
2022-09-18T05:41:30.974Z,101558.50
2022-09-18T05:43:57.461Z,101558.50
2022-09-18T05:46:23.872Z,101555.78
2022-09-18T05:48:51.044Z,101554.00
2022-09-18T05:51:17.503Z,101558.28
2022-09-18T05:53:48.357Z,101557.66
2022-09-18T05:56:17.966Z,101572.81
2022-09-18T05:58:44.408Z,101558.28
2022-09-18T06:01:11.121Z,101548.84
2022-09-18T06:03:37.624Z,101550.75
2022-09-18T06:06:04.327Z,101550.09
2022-09-18T06:08:30.775Z,101548.78
2022-09-18T06:11:00.543Z,101555.16
2022-09-18T06:13:26.983Z,101559.44
2022-09-18T06:15:53.607Z,101565.78
2022-09-18T06:18:20.078Z,101563.94
2022-09-18T06:20:55.318Z,101561.81
2022-09-18T06:23:26.303Z,101566.72
2022-09-18T06:26:00.235Z,101567.78
2022-09-18T06:28:27.957Z,101563.47
2022-09-18T06:30:54.405Z,101559.72
2022-09-18T06:33:20.834Z,101555.88
2022-09-18T06:35:49.132Z,101545.16
2022-09-18T06:38:16.410Z,101555.69
2022-09-18T06:40:52.903Z,101548.31
2022-09-18T06:43:20.218Z,101549.00
2022-09-18T06:45:55.222Z,101554.63
2022-09-18T06:48:22.929Z,101549.53
2022-09-18T06:50:57.153Z,101545.69
2022-09-18T06:53:24.310Z,101552.72
2022-09-18T06:55:50.832Z,101555.75
2022-09-18T06:58:19.352Z,101559.38
2022-09-18T07:00:46.282Z,101559.88
2022-09-18T07:03:12.928Z,101559.19
2022-09-18T07:05:42.888Z,101552.28
2022-09-18T07:08:09.967Z,101552.09
2022-09-18T07:10:36.722Z,101549.03
2022-09-18T07:13:03.490Z,101548.97
2022-09-18T07:15:30.692Z,101555.31
2022-09-18T07:18:01.694Z,101547.38
2022-09-18T07:20:29.523Z,101558.59
2022-09-18T07:23:00.734Z,101537.31
2022-09-18T07:25:29.419Z,101541.41
2022-09-18T07:27:55.978Z,101546.59
2022-09-18T07:30:22.515Z,101541.63
2022-09-18T07:32:49.148Z,101538.25
2022-09-18T07:35:15.666Z,101544.13
2022-09-18T07:37:42.134Z,101549.03
2022-09-18T07:40:09.679Z,101551.41
2022-09-18T07:42:36.523Z,101546.41
2022-09-18T07:45:03.756Z,101531.13
2022-09-18T07:47:30.206Z,101528.66
2022-09-18T07:49:56.756Z,101538.63
2022-09-18T07:52:23.268Z,101538.38
2022-09-18T07:54:49.827Z,101541.69
2022-09-18T07:57:16.378Z,101537.47
2022-09-18T07:59:43.010Z,101547.34
2022-09-18T08:02:11.378Z,101540.88
2022-09-18T08:04:38.005Z,101532.84
2022-09-18T08:07:04.555Z,101539.16
2022-09-18T08:09:31.020Z,101533.59
2022-09-18T08:11:57.477Z,101537.69
2022-09-18T08:14:28.598Z,101538.22
2022-09-18T08:16:56.028Z,101533.13
2022-09-18T08:19:22.546Z,101536.50
2022-09-18T08:21:49.322Z,101530.28
2022-09-18T08:24:17.379Z,101540.72
2022-09-18T08:26:44.327Z,101537.91
2022-09-18T08:29:10.780Z,101545.72
2022-09-18T08:31:37.325Z,101552.84
2022-09-18T08:34:03.845Z,101542.88
2022-09-18T08:36:30.307Z,101541.75
2022-09-18T08:38:57.174Z,101550.81
2022-09-18T08:41:31.018Z,101540.06
2022-09-18T08:44:07.656Z,101540.41
2022-09-18T08:46:41.726Z,101535.63
2022-09-18T08:49:25.813Z,101536.56
2022-09-18T08:52:09.907Z,101530.41
2022-09-18T08:55:08.837Z,101535.19
2022-09-18T08:57:41.847Z,101535.97
2022-09-18T09:00:23.620Z,101542.88
2022-09-18T09:02:53.715Z,101532.13
2022-09-18T09:05:31.060Z,101539.50
2022-09-18T09:08:31.169Z,101548.22
2022-09-18T09:11:25.697Z,101540.06
2022-09-18T09:14:34.226Z,101539.72
2022-09-18T09:17:46.838Z,101544.59
2022-09-18T09:20:22.656Z,101542.66
2022-09-18T09:23:05.650Z,101540.72
2022-09-18T09:25:50.440Z,101539.84
2022-09-18T09:28:24.093Z,101538.44
2022-09-18T09:30:56.870Z,101544.34
2022-09-18T09:33:34.450Z,101548.69
2022-09-18T09:36:07.002Z,101544.81
2022-09-18T09:38:42.336Z,101542.88
2022-09-18T09:41:34.848Z,101537.44
2022-09-18T09:44:05.078Z,101533.34
2022-09-18T09:46:58.123Z,101529.69
2022-09-18T09:49:28.694Z,101532.06
2022-09-18T09:51:58.234Z,101534.56
2022-09-18T09:54:24.861Z,101535.91
2022-09-18T09:57:09.863Z,101537.97
2022-09-18T09:59:56.369Z,101530.72
2022-09-18T10:02:44.751Z,101536.50
2022-09-18T10:05:23.731Z,101549.34
2022-09-18T10:07:56.568Z,101534.44
2022-09-18T10:10:49.334Z,101541.81
2022-09-18T10:13:23.362Z,101546.34
2022-09-18T10:15:55.841Z,101543.97
2022-09-18T10:18:25.925Z,101549.75
2022-09-18T10:20:58.356Z,101548.97
2022-09-18T10:23:48.237Z,101547.03
2022-09-18T10:26:23.398Z,101546.47
2022-09-18T10:28:49.895Z,101543.75
2022-09-18T10:31:18.084Z,101540.69
2022-09-18T10:33:51.140Z,101536.69
2022-09-18T10:36:33.029Z,101531.91
2022-09-18T10:39:00.022Z,101537.78
2022-09-18T10:41:30.084Z,101532.69
2022-09-18T10:44:14.808Z,101533.84
2022-09-18T10:46:52.657Z,101532.44
2022-09-18T10:49:32.076Z,101537.63
2022-09-18T10:52:28.506Z,101531.94
2022-09-18T10:54:59.415Z,101548.66
2022-09-18T10:57:33.209Z,101540.63
2022-09-18T11:00:00.310Z,101542.66
2022-09-18T11:02:33.248Z,101544.22
2022-09-18T11:05:03.101Z,101536.63
2022-09-18T11:07:30.060Z,101537.00
2022-09-18T11:09:56.695Z,101544.38
2022-09-18T11:12:27.311Z,101547.09
2022-09-18T11:15:06.240Z,101547.34
2022-09-18T11:17:40.484Z,101551.47
2022-09-18T11:20:07.779Z,101558.50
2022-09-18T11:22:40.258Z,101558.72
2022-09-18T11:25:23.735Z,101553.75
2022-09-18T11:27:52.484Z,101543.63
2022-09-18T11:30:29.645Z,101542.38
2022-09-18T11:33:00.650Z,101524.44
2022-09-18T11:35:29.993Z,101537.28
2022-09-18T11:38:00.914Z,101524.22
2022-09-18T11:40:30.035Z,101534.44
2022-09-18T11:42:57.059Z,101534.66
2022-09-18T11:45:42.194Z,101529.34
2022-09-18T11:48:23.917Z,101530.44
2022-09-18T11:50:55.562Z,101534.13
2022-09-18T11:53:26.249Z,101530.84
2022-09-18T11:56:25.377Z,101535.25
2022-09-18T11:59:01.878Z,101541.25
2022-09-18T12:01:44.243Z,101543.09
2022-09-18T12:04:17.439Z,101539.38
2022-09-18T12:06:51.673Z,101536.16
2022-09-18T12:09:31.942Z,101541.28
2022-09-18T12:12:13.261Z,101528.00
2022-09-18T12:15:09.129Z,101532.06
2022-09-18T12:17:42.590Z,101542.53
2022-09-18T12:20:34.981Z,101534.25
2022-09-18T12:23:01.933Z,101528.34
2022-09-18T12:25:44.603Z,101526.88
2022-09-18T12:28:22.952Z,101528.34
2022-09-18T12:31:13.541Z,101533.13
2022-09-18T12:34:08.451Z,101534.97
2022-09-18T12:37:07.186Z,101544.84
2022-09-18T12:40:05.321Z,101539.84
2022-09-18T12:42:59.677Z,101534.41
2022-09-18T12:46:00.443Z,101535.88
2022-09-18T12:48:46.752Z,101531.56
2022-09-18T12:51:25.262Z,101535.63
2022-09-18T12:54:20.821Z,101543.81
2022-09-18T12:57:25.754Z,101553.44
2022-09-18T12:59:59.820Z,101553.44
2022-09-18T13:02:37.011Z,101548.81
2022-09-18T13:05:18.376Z,101552.31
2022-09-18T13:07:58.078Z,101541.44
2022-09-18T13:10:29.353Z,101546.78
2022-09-18T13:13:05.485Z,101548.34
2022-09-18T13:15:42.013Z,101544.16
2022-09-18T13:18:32.386Z,101557.88
2022-09-18T13:21:02.940Z,101556.66
2022-09-18T13:23:34.938Z,101541.09
2022-09-18T13:26:04.631Z,101540.22
2022-09-18T13:28:31.363Z,101518.31
2022-09-18T13:31:23.853Z,101524.44
2022-09-18T13:34:06.760Z,101529.66
2022-09-18T13:36:35.577Z,101534.88
2022-09-18T13:39:06.318Z,101532.41
2022-09-18T13:41:45.326Z,101539.75
2022-09-18T13:44:34.760Z,101539.28
2022-09-18T13:47:15.353Z,101540.41
2022-09-18T13:49:49.543Z,101538.50
2022-09-18T13:52:41.813Z,101545.88
2022-09-18T13:55:11.321Z,101539.19
2022-09-18T13:57:38.162Z,101537.84
2022-09-18T14:00:20.117Z,101537.50
2022-09-18T14:02:48.331Z,101532.28
2022-09-18T14:05:38.489Z,101538.97
2022-09-18T14:08:07.802Z,101533.06
2022-09-18T14:10:51.285Z,101536.13
2022-09-18T14:13:40.179Z,101537.72
2022-09-18T14:16:09.034Z,101545.53
2022-09-18T14:18:44.705Z,101541.09
2022-09-18T14:21:17.096Z,101528.84
2022-09-18T14:23:46.436Z,101529.44
2022-09-18T14:26:32.023Z,101531.91
2022-09-18T14:29:10.451Z,101536.13
2022-09-18T14:31:50.111Z,101543.84
2022-09-18T14:34:43.675Z,101537.16
2022-09-18T14:37:28.645Z,101540.09
2022-09-18T14:39:56.366Z,101537.50
2022-09-18T14:42:32.838Z,101542.69
2022-09-18T14:45:12.106Z,101545.75
2022-09-18T14:47:46.536Z,101530.81
2022-09-18T14:50:24.270Z,101538.88
2022-09-18T14:52:50.956Z,101540.88
2022-09-18T14:55:23.394Z,101543.59
2022-09-18T14:57:54.766Z,101537.25
2022-09-18T15:00:25.521Z,101528.41
2022-09-18T15:02:56.458Z,101536.56
2022-09-18T15:05:23.420Z,101533.06
2022-09-18T15:07:53.360Z,101529.31
2022-09-18T15:10:19.907Z,101535.13
2022-09-18T15:12:46.542Z,101538.28
2022-09-18T15:15:30.735Z,101531.91
2022-09-18T15:17:57.509Z,101528.88
2022-09-18T15:20:26.307Z,101537.56
2022-09-18T15:22:53.455Z,101535.34
2022-09-18T15:25:30.793Z,101531.56
2022-09-18T15:28:01.366Z,101527.81
2022-09-18T15:30:28.042Z,101539.28
2022-09-18T15:32:57.430Z,101542.31
2022-09-18T15:35:28.385Z,101538.88
2022-09-18T15:38:02.898Z,101541.16
2022-09-18T15:40:34.641Z,101538.00
2022-09-18T15:43:04.023Z,101532.56
2022-09-18T15:45:33.056Z,101537.84
2022-09-18T15:48:21.440Z,101536.78
2022-09-18T15:50:48.358Z,101538.25
2022-09-18T15:53:19.743Z,101553.31
2022-09-18T15:55:56.564Z,101552.72
2022-09-18T15:58:26.392Z,101557.81
2022-09-18T16:01:00.644Z,101563.94
2022-09-18T16:03:29.998Z,101561.31
2022-09-18T16:06:00.774Z,101564.38
2022-09-18T16:08:30.658Z,101563.72
2022-09-18T16:10:59.650Z,101569.47
2022-09-18T16:13:26.010Z,101572.41
2022-09-18T16:16:07.716Z,101579.53
2022-09-18T16:18:35.020Z,101581.34
2022-09-18T16:21:04.531Z,101574.66
2022-09-18T16:23:50.674Z,101570.16
2022-09-18T16:26:20.161Z,101571.72
2022-09-18T16:28:50.193Z,101570.03
2022-09-18T16:31:21.010Z,101562.88
2022-09-18T16:33:48.597Z,101562.75
2022-09-18T16:36:27.454Z,101549.63
2022-09-18T16:38:55.592Z,101534.56
2022-09-18T16:41:22.454Z,101544.31
2022-09-18T16:43:49.030Z,101546.91
2022-09-18T16:46:17.080Z,101544.97
2022-09-18T16:48:44.084Z,101559.47
2022-09-18T16:51:10.560Z,101554.03
2022-09-18T16:53:38.242Z,101563.66
2022-09-18T16:56:12.232Z,101556.97
2022-09-18T16:58:40.564Z,101563.41
2022-09-18T17:01:07.194Z,101558.38
2022-09-18T17:03:33.853Z,101563.34
2022-09-18T17:06:02.053Z,101566.06
2022-09-18T17:08:30.281Z,101564.25
2022-09-18T17:10:57.042Z,101562.56
2022-09-18T17:13:23.545Z,101557.97
2022-09-18T17:15:50.128Z,101563.94
2022-09-18T17:18:16.908Z,101570.84
2022-09-18T17:20:43.453Z,101564.00
2022-09-18T17:23:09.907Z,101557.31
2022-09-18T17:25:36.843Z,101561.69
2022-09-18T17:28:03.419Z,101565.97
2022-09-18T17:30:29.841Z,101556.91
2022-09-18T17:32:56.272Z,101570.34
2022-09-18T17:35:22.710Z,101568.28
2022-09-18T17:37:51.664Z,101567.03
2022-09-18T17:40:21.468Z,101572.97
2022-09-18T17:42:48.054Z,101572.84
2022-09-18T17:45:14.848Z,101573.94
2022-09-18T17:47:41.397Z,101583.75
2022-09-18T17:50:08.444Z,101587.09
2022-09-18T17:52:35.955Z,101590.00
2022-09-18T17:55:03.218Z,101595.94
2022-09-18T17:57:31.094Z,101603.13
2022-09-18T17:59:57.929Z,101593.25
2022-09-18T18:02:25.135Z,101595.63
2022-09-18T18:04:51.621Z,101596.31
2022-09-18T18:07:18.114Z,101602.53
2022-09-18T18:09:44.586Z,101603.81
2022-09-18T18:12:11.057Z,101605.09
2022-09-18T18:14:37.689Z,101608.00
2022-09-18T18:17:04.328Z,101612.16
2022-09-18T18:19:30.850Z,101614.38
2022-09-18T18:21:57.360Z,101614.69
2022-09-18T18:24:23.889Z,101625.38
2022-09-18T18:26:50.679Z,101625.06
2022-09-18T18:29:19.645Z,101625.38
2022-09-18T18:31:49.135Z,101631.28
2022-09-18T18:34:20.994Z,101643.25
2022-09-18T18:36:50.008Z,101647.88
2022-09-18T18:39:16.912Z,101643.41
2022-09-18T18:41:45.547Z,101652.50
2022-09-18T18:44:13.214Z,101645.00
2022-09-18T18:46:39.933Z,101652.97
2022-09-18T18:49:09.807Z,101652.34
2022-09-18T18:51:47.328Z,101663.84
2022-09-18T18:54:20.006Z,101671.50
2022-09-18T18:56:47.074Z,101666.06
2022-09-18T18:59:18.313Z,101676.13
2022-09-18T19:01:45.510Z,101674.34
2022-09-18T19:04:14.556Z,101678.97
2022-09-18T19:06:43.500Z,101684.72
2022-09-18T19:09:11.613Z,101689.03
2022-09-18T19:11:43.123Z,101682.16
2022-09-18T19:14:16.958Z,101694.91
2022-09-18T19:16:45.390Z,101688.22
2022-09-18T19:19:13.521Z,101690.94
2022-09-18T19:21:40.371Z,101696.81
2022-09-18T19:24:08.773Z,101683.13
2022-09-18T19:26:36.493Z,101696.34
2022-09-18T19:29:06.841Z,101704.34
2022-09-18T19:31:36.534Z,101709.25
2022-09-18T19:34:03.593Z,101697.47
2022-09-18T19:36:31.406Z,101701.31
2022-09-18T19:39:01.115Z,101700.84
2022-09-18T19:41:38.896Z,101704.00
2022-09-18T19:44:29.089Z,101700.50
2022-09-18T19:46:59.038Z,101706.25
2022-09-18T19:49:32.499Z,101702.56
2022-09-18T19:51:58.992Z,101719.16
2022-09-18T19:54:25.422Z,101709.91
2022-09-18T19:56:52.153Z,101707.84
2022-09-18T19:59:18.966Z,101714.50
2022-09-18T20:01:45.623Z,101717.88
2022-09-18T20:04:12.126Z,101719.47
2022-09-18T20:06:40.443Z,101719.00
2022-09-18T20:09:07.263Z,101715.63
2022-09-18T20:11:33.726Z,101721.22
2022-09-18T20:14:00.218Z,101724.88
2022-09-18T20:16:26.991Z,101724.69
2022-09-18T20:18:54.558Z,101728.22
2022-09-18T20:21:21.107Z,101732.81
2022-09-18T20:23:48.297Z,101732.19
2022-09-18T20:26:17.212Z,101731.88
2022-09-18T20:28:44.766Z,101741.91
2022-09-18T20:31:14.163Z,101745.91
2022-09-18T20:33:41.067Z,101743.84
2022-09-18T20:36:09.526Z,101745.28
2022-09-18T20:38:39.973Z,101746.56
2022-09-18T20:41:10.930Z,101758.31
2022-09-18T20:43:39.684Z,101756.91
2022-09-18T20:46:08.289Z,101748.28
2022-09-18T20:48:36.656Z,101759.28
2022-09-18T20:51:09.025Z,101757.19
2022-09-18T20:53:38.238Z,101758.50
2022-09-18T20:56:09.530Z,101760.22
2022-09-18T20:58:37.442Z,101760.56
2022-09-18T21:01:08.327Z,101773.31
2022-09-18T21:03:35.698Z,101769.97
2022-09-18T21:06:21.976Z,101771.56
2022-09-18T21:08:53.102Z,101762.63
2022-09-18T21:11:23.503Z,101771.06
2022-09-18T21:13:55.830Z,101776.66
2022-09-18T21:16:25.890Z,101763.13
2022-09-18T21:18:56.615Z,101779.50
2022-09-18T21:21:24.255Z,101785.25
2022-09-18T21:23:53.603Z,101783.63
2022-09-18T21:26:21.218Z,101784.56
2022-09-18T21:28:52.197Z,101775.50
2022-09-18T21:31:19.492Z,101787.59
2022-09-18T21:33:46.446Z,101779.47
2022-09-18T21:36:13.076Z,101789.06
2022-09-18T21:38:41.001Z,101796.72
2022-09-18T21:41:13.202Z,101793.81
2022-09-18T21:43:40.549Z,101795.69
2022-09-18T21:46:11.297Z,101785.66
2022-09-18T21:48:40.354Z,101787.88
2022-09-18T21:51:10.205Z,101786.91
2022-09-18T21:53:39.478Z,101797.25
2022-09-18T21:56:09.686Z,101798.25
2022-09-18T21:58:40.556Z,101799.00
2022-09-18T22:01:15.667Z,101797.91
2022-09-18T22:03:46.866Z,101805.56
2022-09-18T22:06:13.357Z,101803.03
2022-09-18T22:08:41.158Z,101809.56
2022-09-18T22:11:08.043Z,101814.53
2022-09-18T22:13:34.485Z,101814.22
2022-09-18T22:16:01.535Z,101814.81
2022-09-18T22:18:28.620Z,101819.63
2022-09-18T22:20:57.157Z,101810.06
2022-09-18T22:23:23.637Z,101818.19
2022-09-18T22:25:50.037Z,101818.19
2022-09-18T22:28:16.508Z,101821.25
2022-09-18T22:30:42.907Z,101821.72
2022-09-18T22:33:09.348Z,101824.91
2022-09-18T22:35:35.980Z,101830.03
2022-09-18T22:38:02.454Z,101822.53
2022-09-18T22:40:28.945Z,101830.84
2022-09-18T22:42:55.940Z,101826.53
2022-09-18T22:45:22.427Z,101834.03
2022-09-18T22:47:48.842Z,101839.44
2022-09-18T22:50:15.334Z,101837.84
2022-09-18T22:52:42.071Z,101837.38
2022-09-18T22:55:08.666Z,101838.78
2022-09-18T22:57:35.402Z,101844.19
2022-09-18T23:00:02.024Z,101839.88
2022-09-18T23:02:28.512Z,101840.53
2022-09-18T23:04:55.093Z,101838.25
2022-09-18T23:07:21.645Z,101838.91
2022-09-18T23:09:48.208Z,101845.59
2022-09-18T23:12:14.750Z,101846.88
2022-09-18T23:14:41.362Z,101852.94
2022-09-18T23:17:08.414Z,101850.06
2022-09-18T23:19:35.148Z,101846.06
2022-09-18T23:22:02.134Z,101850.69
2022-09-18T23:24:28.867Z,101848.66
2022-09-18T23:26:57.597Z,101849.13
2022-09-18T23:29:25.606Z,101851.03
2022-09-18T23:31:53.770Z,101848.00
2022-09-18T23:34:23.069Z,101852.31
2022-09-18T23:36:52.281Z,101855.34
2022-09-18T23:39:30.339Z,101861.06
2022-09-18T23:41:58.847Z,101856.28
2022-09-18T23:44:28.438Z,101854.19
2022-09-18T23:46:55.193Z,101856.41
2022-09-18T23:49:23.050Z,101852.91
2022-09-18T23:51:51.693Z,101862.75
2022-09-18T23:54:27.148Z,101857.84
2022-09-18T23:56:54.420Z,101859.28
2022-09-18T23:59:23.437Z,101855.66
